sensor_id;sensor_type;location;lat;lon;timestamp;pressure;altitude;pressure_sealevel;temperature;humidity
24962;BME280;12992;50.884;13.668;2024-01-30T00:01:36;98621.75;;;5.99;61.57
24962;BME280;12992;50.884;13.668;2024-01-30T00:04:02;98618.50;;;6.04;61.08
24962;BME280;12992;50.884;13.668;2024-01-30T00:06:27;98616.00;;;6.09;61.03
24962;BME280;12992;50.884;13.668;2024-01-30T00:08:53;98624.81;;;6.17;60.30
24962;BME280;12992;50.884;13.668;2024-01-30T00:11:18;98614.25;;;6.22;60.58
24962;BME280;12992;50.884;13.668;2024-01-30T00:13:44;98617.88;;;6.30;60.18
24962;BME280;12992;50.884;13.668;2024-01-30T00:16:20;98614.97;;;6.31;59.77
24962;BME280;12992;50.884;13.668;2024-01-30T00:18:45;98617.25;;;6.34;59.44
24962;BME280;12992;50.884;13.668;2024-01-30T00:21:11;98607.09;;;6.36;59.31
24962;BME280;12992;50.884;13.668;2024-01-30T00:23:36;98617.91;;;6.36;59.25
24962;BME280;12992;50.884;13.668;2024-01-30T00:26:01;98619.97;;;6.34;59.36
24962;BME280;12992;50.884;13.668;2024-01-30T00:28:27;98612.25;;;6.31;59.21
24962;BME280;12992;50.884;13.668;2024-01-30T00:30:52;98615.53;;;6.27;59.42
24962;BME280;12992;50.884;13.668;2024-01-30T00:33:18;98608.78;;;6.16;59.78
24962;BME280;12992;50.884;13.668;2024-01-30T00:35:43;98611.91;;;6.13;59.98
24962;BME280;12992;50.884;13.668;2024-01-30T00:38:08;98618.09;;;6.07;60.01
24962;BME280;12992;50.884;13.668;2024-01-30T00:40:34;98625.13;;;6.01;60.30
24962;BME280;12992;50.884;13.668;2024-01-30T00:42:59;98625.13;;;6.01;60.42
24962;BME280;12992;50.884;13.668;2024-01-30T00:45:25;98624.84;;;5.96;60.74
24962;BME280;12992;50.884;13.668;2024-01-30T00:47:50;98622.72;;;5.91;61.10
24962;BME280;12992;50.884;13.668;2024-01-30T00:50:15;98624.75;;;5.89;61.41
24962;BME280;12992;50.884;13.668;2024-01-30T00:52:41;98627.22;;;5.84;61.55
24962;BME280;12992;50.884;13.668;2024-01-30T00:55:07;98627.16;;;5.78;62.12
24962;BME280;12992;50.884;13.668;2024-01-30T00:57:32;98624.56;;;5.69;62.09
24962;BME280;12992;50.884;13.668;2024-01-30T00:59:57;98621.88;;;5.69;62.31
24962;BME280;12992;50.884;13.668;2024-01-30T01:02:23;98621.16;;;5.61;62.83
24962;BME280;12992;50.884;13.668;2024-01-30T01:04:48;98621.09;;;5.54;62.53
24962;BME280;12992;50.884;13.668;2024-01-30T01:07:13;98622.88;;;5.47;63.70
24962;BME280;12992;50.884;13.668;2024-01-30T01:09:39;98619.53;;;5.45;63.27
24962;BME280;12992;50.884;13.668;2024-01-30T01:12:04;98618.31;;;5.48;63.41
24962;BME280;12992;50.884;13.668;2024-01-30T01:14:30;98618.97;;;5.50;63.33
24962;BME280;12992;50.884;13.668;2024-01-30T01:16:55;98622.72;;;5.49;63.53
24962;BME280;12992;50.884;13.668;2024-01-30T01:19:21;98618.13;;;5.49;63.47
24962;BME280;12992;50.884;13.668;2024-01-30T01:21:46;98618.31;;;5.48;63.93
24962;BME280;12992;50.884;13.668;2024-01-30T01:24:12;98622.88;;;5.47;63.80
24962;BME280;12992;50.884;13.668;2024-01-30T01:26:37;98614.41;;;5.50;63.86
24962;BME280;12992;50.884;13.668;2024-01-30T01:29:02;98618.97;;;5.50;63.85
24962;BME280;12992;50.884;13.668;2024-01-30T01:31:35;98622.31;;;5.52;63.47
24962;BME280;12992;50.884;13.668;2024-01-30T01:34:00;98623.34;;;5.51;63.43
24962;BME280;12992;50.884;13.668;2024-01-30T01:36:25;98619.34;;;5.47;63.46
24962;BME280;12992;50.884;13.668;2024-01-30T01:38:51;98626.16;;;5.43;63.77
24962;BME280;12992;50.884;13.668;2024-01-30T01:41:16;98624.94;;;5.45;64.08
24962;BME280;12992;50.884;13.668;2024-01-30T01:43:41;98620.13;;;5.40;64.27
24962;BME280;12992;50.884;13.668;2024-01-30T01:46:08;98620.13;;;5.40;64.04
24962;BME280;12992;50.884;13.668;2024-01-30T01:48:33;98625.25;;;5.35;64.31
24962;BME280;12992;50.884;13.668;2024-01-30T01:50:59;98620.25;;;5.32;64.31
24962;BME280;12992;50.884;13.668;2024-01-30T01:53:25;98612.78;;;5.34;64.93
24962;BME280;12992;50.884;13.668;2024-01-30T01:55:50;98625.25;;;5.35;65.02
24962;BME280;12992;50.884;13.668;2024-01-30T01:58:19;98627.13;;;5.35;64.75
24962;BME280;12992;50.884;13.668;2024-01-30T02:00:45;98619.31;;;5.25;65.21
24962;BME280;12992;50.884;13.668;2024-01-30T02:03:11;98618.88;;;5.22;65.33
24962;BME280;12992;50.884;13.668;2024-01-30T02:05:39;98620.06;;;5.19;65.78
24962;BME280;12992;50.884;13.668;2024-01-30T02:08:05;98619.63;;;5.16;66.09
24962;BME280;12992;50.884;13.668;2024-01-30T02:10:30;98624.53;;;5.12;66.46
24962;BME280;12992;50.884;13.668;2024-01-30T02:12:55;98622.53;;;5.14;66.58
24962;BME280;12992;50.884;13.668;2024-01-30T02:15:21;98630.97;;;5.26;66.17
24962;BME280;12992;50.884;13.668;2024-01-30T02:17:46;98618.56;;;5.31;66.25
24962;BME280;12992;50.884;13.668;2024-01-30T02:20:11;98612.78;;;5.34;65.83
24962;BME280;12992;50.884;13.668;2024-01-30T02:22:38;98610.34;;;5.39;65.79
24962;BME280;12992;50.884;13.668;2024-01-30T02:25:04;98616.00;;;5.45;65.34
24962;BME280;12992;50.884;13.668;2024-01-30T02:27:30;98607.88;;;5.45;65.61
24962;BME280;12992;50.884;13.668;2024-01-30T02:29:55;98607.78;;;5.53;65.54
24962;BME280;12992;50.884;13.668;2024-01-30T02:32:20;98610.09;;;5.56;65.02
24962;BME280;12992;50.884;13.668;2024-01-30T02:34:46;98602.66;;;5.58;65.60
24962;BME280;12992;50.884;13.668;2024-01-30T02:37:11;98608.47;;;5.61;65.07
24962;BME280;12992;50.884;13.668;2024-01-30T02:39:36;98606.50;;;5.70;65.17
24962;BME280;12992;50.884;13.668;2024-01-30T02:42:01;98607.00;;;5.80;64.86
24962;BME280;12992;50.884;13.668;2024-01-30T02:44:27;98597.72;;;5.89;64.78
24962;BME280;12992;50.884;13.668;2024-01-30T02:46:52;98598.56;;;5.90;64.62
24962;BME280;12992;50.884;13.668;2024-01-30T02:49:19;98589.28;;;5.92;64.06
24962;BME280;12992;50.884;13.668;2024-01-30T02:51:44;98589.91;;;5.94;64.66
24962;BME280;12992;50.884;13.668;2024-01-30T02:54:10;98591.38;;;5.97;64.20
24962;BME280;12992;50.884;13.668;2024-01-30T02:56:35;98593.75;;;6.07;64.41
24962;BME280;12992;50.884;13.668;2024-01-30T02:59:00;98589.16;;;6.07;64.02
24962;BME280;12992;50.884;13.668;2024-01-30T03:01:26;98582.50;;;6.03;64.23
24962;BME280;12992;50.884;13.668;2024-01-30T03:03:51;98578.63;;;5.69;65.29
24962;BME280;12992;50.884;13.668;2024-01-30T03:06:16;98584.75;;;5.57;65.19
24962;BME280;12992;50.884;13.668;2024-01-30T03:08:42;98591.91;;;5.28;66.02
24962;BME280;12992;50.884;13.668;2024-01-30T03:11:08;98583.03;;;5.13;67.13
24962;BME280;12992;50.884;13.668;2024-01-30T03:13:33;98590.03;;;5.29;67.50
24962;BME280;12992;50.884;13.668;2024-01-30T03:15:58;98589.59;;;5.04;68.08
24962;BME280;12992;50.884;13.668;2024-01-30T03:18:24;98589.22;;;5.28;68.02
24962;BME280;12992;50.884;13.668;2024-01-30T03:20:49;98590.44;;;5.47;67.41
24962;BME280;12992;50.884;13.668;2024-01-30T03:23:14;98584.75;;;5.57;67.24
24962;BME280;12992;50.884;13.668;2024-01-30T03:25:40;98582.56;;;5.67;66.49
24962;BME280;12992;50.884;13.668;2024-01-30T03:28:05;98589.13;;;5.79;66.33
24962;BME280;12992;50.884;13.668;2024-01-30T03:30:30;98588.16;;;5.87;66.35
24962;BME280;12992;50.884;13.668;2024-01-30T03:32:56;98582.94;;;5.85;66.24
24962;BME280;12992;50.884;13.668;2024-01-30T03:35:21;98580.22;;;5.85;66.52
24962;BME280;12992;50.884;13.668;2024-01-30T03:37:46;98586.38;;;5.94;66.08
24962;BME280;12992;50.884;13.668;2024-01-30T03:40:12;98580.13;;;5.93;66.04
24962;BME280;12992;50.884;13.668;2024-01-30T03:42:37;98578.94;;;6.03;65.98
24962;BME280;12992;50.884;13.668;2024-01-30T03:45:03;98566.97;;;6.12;65.86
24962;BME280;12992;50.884;13.668;2024-01-30T03:47:28;98574.09;;;6.19;65.42
24962;BME280;12992;50.884;13.668;2024-01-30T03:49:54;98573.75;;;6.36;64.75
24962;BME280;12992;50.884;13.668;2024-01-30T03:52:19;98567.00;;;6.46;64.42
24962;BME280;12992;50.884;13.668;2024-01-30T03:54:44;98566.31;;;6.44;64.46
24962;BME280;12992;50.884;13.668;2024-01-30T03:57:10;98569.22;;;6.43;63.91
24962;BME280;12992;50.884;13.668;2024-01-30T03:59:35;98563.00;;;6.42;64.15
24962;BME280;12992;50.884;13.668;2024-01-30T04:02:00;98567.00;;;6.46;63.79
24962;BME280;12992;50.884;13.668;2024-01-30T04:04:26;98566.16;;;6.46;64.19
24962;BME280;12992;50.884;13.668;2024-01-30T04:06:51;98570.28;;;6.42;64.31
24962;BME280;12992;50.884;13.668;2024-01-30T04:09:16;98573.81;;;6.42;64.04
24962;BME280;12992;50.884;13.668;2024-01-30T04:11:42;98565.06;;;6.40;64.33
24962;BME280;12992;50.884;13.668;2024-01-30T04:14:08;98569.44;;;6.41;64.19
24962;BME280;12992;50.884;13.668;2024-01-30T04:16:33;98567.13;;;6.38;64.25
24962;BME280;12992;50.884;13.668;2024-01-30T04:18:58;98559.03;;;6.38;64.51
24962;BME280;12992;50.884;13.668;2024-01-30T04:21:24;98564.44;;;6.38;64.49
24962;BME280;12992;50.884;13.668;2024-01-30T04:23:50;98572.34;;;6.40;64.47
24962;BME280;12992;50.884;13.668;2024-01-30T04:26:16;98557.97;;;6.39;64.53
24962;BME280;12992;50.884;13.668;2024-01-30T04:28:42;98564.66;;;6.43;64.23
24962;BME280;12992;50.884;13.668;2024-01-30T04:31:08;98567.34;;;6.37;64.60
24962;BME280;12992;50.884;13.668;2024-01-30T04:33:33;98553.50;;;6.25;64.93
24962;BME280;12992;50.884;13.668;2024-01-30T04:35:59;98556.19;;;6.18;65.06
24962;BME280;12992;50.884;13.668;2024-01-30T04:38:24;98564.09;;;6.20;64.95
24962;BME280;12992;50.884;13.668;2024-01-30T04:40:49;98561.59;;;6.18;64.83
24962;BME280;12992;50.884;13.668;2024-01-30T04:43:15;98560.56;;;6.19;65.06
24962;BME280;12992;50.884;13.668;2024-01-30T04:45:41;98559.56;;;6.27;64.23
24962;BME280;12992;50.884;13.668;2024-01-30T04:48:07;98552.88;;;6.23;64.61
24962;BME280;12992;50.884;13.668;2024-01-30T04:50:32;98557.88;;;6.26;64.09
24962;BME280;12992;50.884;13.668;2024-01-30T04:52:57;98554.81;;;6.36;63.51
24962;BME280;12992;50.884;13.668;2024-01-30T04:55:22;98554.66;;;6.37;63.64
24962;BME280;12992;50.884;13.668;2024-01-30T04:57:48;98551.28;;;6.35;63.52
24962;BME280;12992;50.884;13.668;2024-01-30T05:00:13;98548.84;;;6.40;63.14
24962;BME280;12992;50.884;13.668;2024-01-30T05:02:39;98548.84;;;6.40;62.81
24962;BME280;12992;50.884;13.668;2024-01-30T05:05:04;98555.91;;;6.41;62.46
24962;BME280;12992;50.884;13.668;2024-01-30T05:07:30;98547.38;;;6.44;62.74
24962;BME280;12992;50.884;13.668;2024-01-30T05:09:55;98546.97;;;6.41;62.11
24962;BME280;12992;50.884;13.668;2024-01-30T05:12:20;98553.44;;;6.46;61.87
24962;BME280;12992;50.884;13.668;2024-01-30T05:14:46;98544.47;;;6.39;62.43
24962;BME280;12992;50.884;13.668;2024-01-30T05:17:11;98543.84;;;6.44;62.09
24962;BME280;12992;50.884;13.668;2024-01-30T05:19:38;98540.75;;;6.47;61.73
24962;BME280;12992;50.884;13.668;2024-01-30T05:22:03;98539.25;;;6.44;62.12
24962;BME280;12992;50.884;13.668;2024-01-30T05:24:28;98531.81;;;6.46;61.59
24962;BME280;12992;50.884;13.668;2024-01-30T05:26:54;98535.31;;;6.40;61.67
24962;BME280;12992;50.884;13.668;2024-01-30T05:29:19;98536.75;;;6.43;61.39
24962;BME280;12992;50.884;13.668;2024-01-30T05:31:44;98545.09;;;6.41;61.91
24962;BME280;12992;50.884;13.668;2024-01-30T05:34:10;98535.06;;;6.35;61.84
24962;BME280;12992;50.884;13.668;2024-01-30T05:36:35;98540.25;;;6.30;61.72
24962;BME280;12992;50.884;13.668;2024-01-30T05:39:00;98541.69;;;6.33;61.58
24962;BME280;12992;50.884;13.668;2024-01-30T05:41:26;98540.25;;;6.30;61.47
24962;BME280;12992;50.884;13.668;2024-01-30T05:43:51;98537.47;;;6.23;61.82
24962;BME280;12992;50.884;13.668;2024-01-30T05:46:17;98542.47;;;6.20;61.87
24962;BME280;12992;50.884;13.668;2024-01-30T05:48:42;98538.66;;;6.14;62.32
24962;BME280;12992;50.884;13.668;2024-01-30T05:51:07;98541.97;;;6.10;62.35
24962;BME280;12992;50.884;13.668;2024-01-30T05:53:33;98542.75;;;6.04;63.23
24962;BME280;12992;50.884;13.668;2024-01-30T05:56:01;98537.69;;;5.94;63.10
24962;BME280;12992;50.884;13.668;2024-01-30T05:58:26;98535.84;;;5.94;63.40
24962;BME280;12992;50.884;13.668;2024-01-30T06:00:51;98537.91;;;5.92;63.56
24962;BME280;12992;50.884;13.668;2024-01-30T06:03:17;98535.53;;;5.89;63.65
24962;BME280;12992;50.884;13.668;2024-01-30T06:05:42;98545.09;;;5.85;63.73
24962;BME280;12992;50.884;13.668;2024-01-30T06:08:07;98542.13;;;5.80;64.06
24962;BME280;12992;50.884;13.668;2024-01-30T06:10:33;98538.53;;;5.73;64.30
24962;BME280;12992;50.884;13.668;2024-01-30T06:12:58;98545.59;;;5.74;63.90
24962;BME280;12992;50.884;13.668;2024-01-30T06:15:23;98539.19;;;5.75;63.81
24962;BME280;12992;50.884;13.668;2024-01-30T06:17:49;98541.22;;;5.73;63.82
24962;BME280;12992;50.884;13.668;2024-01-30T06:20:14;98540.78;;;5.69;64.06
24962;BME280;12992;50.884;13.668;2024-01-30T06:22:40;98543.88;;;5.66;64.17
24962;BME280;12992;50.884;13.668;2024-01-30T06:25:05;98544.06;;;5.65;64.38
24962;BME280;12992;50.884;13.668;2024-01-30T06:27:30;98534.56;;;5.69;64.13
24962;BME280;12992;50.884;13.668;2024-01-30T06:29:56;98544.53;;;5.68;64.39
24962;BME280;12992;50.884;13.668;2024-01-30T06:32:21;98543.06;;;5.66;64.44
24962;BME280;12992;50.884;13.668;2024-01-30T06:34:46;98546.53;;;5.60;64.71
24962;BME280;12992;50.884;13.668;2024-01-30T06:37:12;98539.53;;;5.65;64.44
24962;BME280;12992;50.884;13.668;2024-01-30T06:39:37;98544.72;;;5.67;64.73
24962;BME280;12992;50.884;13.668;2024-01-30T06:42:02;98542.38;;;5.64;64.28
24962;BME280;12992;50.884;13.668;2024-01-30T06:44:28;98541.34;;;5.65;64.75
24962;BME280;12992;50.884;13.668;2024-01-30T06:46:53;98542.78;;;5.61;64.95
24962;BME280;12992;50.884;13.668;2024-01-30T06:49:19;98548.97;;;5.55;64.99
24962;BME280;12992;50.884;13.668;2024-01-30T06:51:44;98538.94;;;5.49;65.06
24962;BME280;12992;50.884;13.668;2024-01-30T06:54:09;98535.16;;;5.43;65.22
24962;BME280;12992;50.884;13.668;2024-01-30T06:56:34;98537.78;;;5.36;65.75
24962;BME280;12992;50.884;13.668;2024-01-30T06:59:00;98537.13;;;5.34;66.04
24962;BME280;12992;50.884;13.668;2024-01-30T07:01:29;98540.47;;;5.36;65.85
24962;BME280;12992;50.884;13.668;2024-01-30T07:03:55;98535.47;;;5.33;65.94
24962;BME280;12992;50.884;13.668;2024-01-30T07:06:20;98537.53;;;5.31;66.23
24962;BME280;12992;50.884;13.668;2024-01-30T07:08:46;98539.91;;;5.41;66.11
24962;BME280;12992;50.884;13.668;2024-01-30T07:11:21;98543.44;;;5.42;65.91
24962;BME280;12992;50.884;13.668;2024-01-30T07:13:47;98544.09;;;5.44;65.78
24962;BME280;12992;50.884;13.668;2024-01-30T07:16:14;98538.41;;;5.38;66.14
24962;BME280;12992;50.884;13.668;2024-01-30T07:18:39;98545.88;;;5.36;66.32
24962;BME280;12992;50.884;13.668;2024-01-30T07:21:04;98542.53;;;5.34;66.70
24962;BME280;12992;50.884;13.668;2024-01-30T07:23:30;98547.66;;;5.29;66.64
24962;BME280;12992;50.884;13.668;2024-01-30T07:25:55;98539.19;;;5.32;66.63
24962;BME280;12992;50.884;13.668;2024-01-30T07:28:20;98550.09;;;5.39;67.07
24962;BME280;12992;50.884;13.668;2024-01-30T07:30:46;98548.66;;;5.43;67.08
24962;BME280;12992;50.884;13.668;2024-01-30T07:33:12;98556.03;;;5.56;66.37
24962;BME280;12992;50.884;13.668;2024-01-30T07:35:37;98563.59;;;5.88;66.17
24962;BME280;12992;50.884;13.668;2024-01-30T07:38:03;98558.47;;;6.49;64.92
24962;BME280;12992;50.884;13.668;2024-01-30T07:40:28;98548.47;;;6.91;63.01
24962;BME280;12992;50.884;13.668;2024-01-30T07:42:54;98540.47;;;7.37;61.76
24962;BME280;12992;50.884;13.668;2024-01-30T07:45:19;98529.03;;;7.62;60.57
24962;BME280;12992;50.884;13.668;2024-01-30T07:47:50;98524.63;;;7.34;59.70
24962;BME280;12992;50.884;13.668;2024-01-30T07:50:15;98528.13;;;7.22;59.70
24962;BME280;12992;50.884;13.668;2024-01-30T07:52:41;98525.69;;;7.33;59.96
24962;BME280;12992;50.884;13.668;2024-01-30T07:55:06;98535.94;;;7.64;59.22
24962;BME280;12992;50.884;13.668;2024-01-30T07:57:33;98521.72;;;7.56;58.74
24962;BME280;12992;50.884;13.668;2024-01-30T07:59:59;98523.97;;;7.32;59.49
24962;BME280;12992;50.884;13.668;2024-01-30T08:02:24;98520.47;;;7.45;59.16
24962;BME280;12992;50.884;13.668;2024-01-30T08:04:50;98522.38;;;7.71;59.07
24962;BME280;12992;50.884;13.668;2024-01-30T08:07:15;98529.47;;;7.99;58.56
24962;BME280;12992;50.884;13.668;2024-01-30T08:09:40;98524.63;;;8.20;57.89
24962;BME280;12992;50.884;13.668;2024-01-30T08:12:06;98507.94;;;8.10;57.58
24962;BME280;12992;50.884;13.668;2024-01-30T08:14:31;98512.97;;;8.07;57.99
24962;BME280;12992;50.884;13.668;2024-01-30T08:16:57;98515.69;;;8.13;57.54
24962;BME280;12992;50.884;13.668;2024-01-30T08:19:22;98513.38;;;8.17;57.17
24962;BME280;12992;50.884;13.668;2024-01-30T08:21:47;98510.03;;;8.08;57.40
24962;BME280;12992;50.884;13.668;2024-01-30T08:24:12;98504.25;;;7.78;57.20
24962;BME280;12992;50.884;13.668;2024-01-30T08:26:38;98509.22;;;7.75;57.28
24962;BME280;12992;50.884;13.668;2024-01-30T08:29:04;98510.91;;;7.82;57.33
24962;BME280;12992;50.884;13.668;2024-01-30T08:31:29;98510.28;;;7.87;57.02
24962;BME280;12992;50.884;13.668;2024-01-30T08:33:54;98520.28;;;7.93;57.02
24962;BME280;12992;50.884;13.668;2024-01-30T08:36:20;98518.19;;;8.02;57.81
24962;BME280;12992;50.884;13.668;2024-01-30T08:38:45;98520.50;;;8.05;56.90
24962;BME280;12992;50.884;13.668;2024-01-30T08:41:10;98505.25;;;8.10;56.60
24962;BME280;12992;50.884;13.668;2024-01-30T08:43:36;98514.66;;;8.14;56.41
24962;BME280;12992;50.884;13.668;2024-01-30T08:46:02;98514.41;;;8.22;56.10
24962;BME280;12992;50.884;13.668;2024-01-30T08:48:28;98515.03;;;8.24;55.98
24962;BME280;12992;50.884;13.668;2024-01-30T08:50:53;98511.50;;;8.24;56.04
24962;BME280;12992;50.884;13.668;2024-01-30T08:53:18;98505.41;;;8.29;54.98
24962;BME280;12992;50.884;13.668;2024-01-30T08:55:44;98516.47;;;8.34;54.59
24962;BME280;12992;50.884;13.668;2024-01-30T08:58:09;98503.75;;;8.34;53.65
24962;BME280;12992;50.884;13.668;2024-01-30T09:00:35;98511.25;;;8.39;53.94
24962;BME280;12992;50.884;13.668;2024-01-30T09:03:00;98512.75;;;8.35;54.12
24962;BME280;12992;50.884;13.668;2024-01-30T09:05:26;98519.84;;;8.36;53.69
24962;BME280;12992;50.884;13.668;2024-01-30T09:07:51;98521.28;;;8.38;53.91
24962;BME280;12992;50.884;13.668;2024-01-30T09:10:16;98509.59;;;8.38;53.66
24962;BME280;12992;50.884;13.668;2024-01-30T09:12:42;98517.13;;;8.42;54.00
24962;BME280;12992;50.884;13.668;2024-01-30T09:15:08;98520.44;;;8.51;53.89
24962;BME280;12992;50.884;13.668;2024-01-30T09:17:34;98522.72;;;8.54;53.78
24962;BME280;12992;50.884;13.668;2024-01-30T09:19:59;98530.84;;;8.67;53.56
24962;BME280;12992;50.884;13.668;2024-01-30T09:22:25;98530.59;;;8.75;53.26
24962;BME280;12992;50.884;13.668;2024-01-30T09:24:50;98533.25;;;8.89;52.90
24962;BME280;12992;50.884;13.668;2024-01-30T09:27:15;98539.50;;;8.96;53.31
24962;BME280;12992;50.884;13.668;2024-01-30T09:29:40;98551.94;;;9.17;52.52
24962;BME280;12992;50.884;13.668;2024-01-30T09:32:06;98556.50;;;9.29;53.06
24962;BME280;12992;50.884;13.668;2024-01-30T09:34:32;98555.53;;;9.49;52.96
24962;BME280;12992;50.884;13.668;2024-01-30T09:37:01;98550.94;;;9.49;52.80
24962;BME280;12992;50.884;13.668;2024-01-30T09:39:26;98553.34;;;9.64;53.25
24962;BME280;12992;50.884;13.668;2024-01-30T09:42:01;98561.41;;;9.77;54.03
24962;BME280;12992;50.884;13.668;2024-01-30T09:44:29;98554.03;;;9.84;51.99
24962;BME280;12992;50.884;13.668;2024-01-30T09:46:55;98553.03;;;10.04;52.01
24962;BME280;12992;50.884;13.668;2024-01-30T09:49:20;98548.38;;;10.11;51.50
24962;BME280;12992;50.884;13.668;2024-01-30T09:51:46;98549.38;;;10.16;51.44
24962;BME280;12992;50.884;13.668;2024-01-30T09:54:13;98543.75;;;10.11;50.90
24962;BME280;12992;50.884;13.668;2024-01-30T09:56:39;98541.03;;;10.11;51.68
24962;BME280;12992;50.884;13.668;2024-01-30T09:59:04;98533.00;;;10.23;50.70
24962;BME280;12992;50.884;13.668;2024-01-30T10:01:30;98535.22;;;10.08;50.66
24962;BME280;12992;50.884;13.668;2024-01-30T10:03:56;98547.78;;;10.34;51.12
24962;BME280;12992;50.884;13.668;2024-01-30T10:06:21;98542.13;;;10.54;50.96
24962;BME280;12992;50.884;13.668;2024-01-30T10:08:48;98534.63;;;10.49;50.91
24962;BME280;12992;50.884;13.668;2024-01-30T10:11:13;98534.63;;;10.86;51.44
24962;BME280;12992;50.884;13.668;2024-01-30T10:13:39;98525.09;;;11.43;49.73
24962;BME280;12992;50.884;13.668;2024-01-30T10:16:04;98516.53;;;12.87;48.24
24962;BME280;12992;50.884;13.668;2024-01-30T10:18:32;98514.88;;;14.00;45.30
24962;BME280;12992;50.884;13.668;2024-01-30T10:20:58;98500.66;;;15.41;43.82
24962;BME280;12992;50.884;13.668;2024-01-30T10:23:24;98493.81;;;16.72;42.95
24962;BME280;12992;50.884;13.668;2024-01-30T10:25:51;98479.91;;;17.04;39.57
24962;BME280;12992;50.884;13.668;2024-01-30T10:28:16;98479.28;;;17.69;39.00
24962;BME280;12992;50.884;13.668;2024-01-30T10:30:42;98477.94;;;18.18;38.30
24962;BME280;12992;50.884;13.668;2024-01-30T10:33:07;98469.91;;;17.65;37.57
24962;BME280;12992;50.884;13.668;2024-01-30T10:35:33;98466.88;;;17.62;37.82
24962;BME280;12992;50.884;13.668;2024-01-30T10:37:59;98456.34;;;17.33;37.49
24962;BME280;12992;50.884;13.668;2024-01-30T10:40:27;98462.69;;;17.34;38.14
24962;BME280;12992;50.884;13.668;2024-01-30T10:42:53;98459.34;;;17.21;38.24
24962;BME280;12992;50.884;13.668;2024-01-30T10:45:21;98457.97;;;17.19;38.52
24962;BME280;12992;50.884;13.668;2024-01-30T10:47:50;98454.72;;;17.42;37.80
24962;BME280;12992;50.884;13.668;2024-01-30T10:50:17;98448.63;;;17.25;37.78
24962;BME280;12992;50.884;13.668;2024-01-30T10:52:44;98442.38;;;16.30;38.46
24962;BME280;12992;50.884;13.668;2024-01-30T10:55:10;98451.75;;;16.76;39.05
24962;BME280;12992;50.884;13.668;2024-01-30T10:57:36;98437.81;;;16.98;38.83
24962;BME280;12992;50.884;13.668;2024-01-30T11:00:07;98424.84;;;16.88;37.72
24962;BME280;12992;50.884;13.668;2024-01-30T11:02:46;98429.94;;;16.64;37.97
24962;BME280;12992;50.884;13.668;2024-01-30T11:05:12;98419.72;;;16.55;38.60
24962;BME280;12992;50.884;13.668;2024-01-30T11:07:39;98417.06;;;16.75;38.38
24962;BME280;12992;50.884;13.668;2024-01-30T11:10:06;98414.63;;;16.79;38.43
24962;BME280;12992;50.884;13.668;2024-01-30T11:12:38;98404.16;;;16.70;37.82
24962;BME280;12992;50.884;13.668;2024-01-30T11:15:13;98404.19;;;16.33;37.87
24962;BME280;12992;50.884;13.668;2024-01-30T11:20:25;98391.34;;;16.49;38.69
24962;BME280;12992;50.884;13.668;2024-01-30T11:22:53;98383.66;;;16.51;37.88
24962;BME280;12992;50.884;13.668;2024-01-30T11:25:20;98385.16;;;15.79;37.71
24962;BME280;12992;50.884;13.668;2024-01-30T11:27:46;98386.38;;;15.29;38.40
24962;BME280;12992;50.884;13.668;2024-01-30T11:30:30;98381.09;;;14.96;38.96
24962;BME280;12992;50.884;13.668;2024-01-30T11:33:00;98393.31;;;14.61;38.94
24962;BME280;12992;50.884;13.668;2024-01-30T11:35:25;98389.69;;;14.39;39.41
24962;BME280;12992;50.884;13.668;2024-01-30T11:37:51;98395.72;;;14.19;40.42
24962;BME280;12992;50.884;13.668;2024-01-30T11:40:16;98394.34;;;14.38;40.84
24962;BME280;12992;50.884;13.668;2024-01-30T11:42:42;98398.28;;;14.26;40.26
24962;BME280;12992;50.884;13.668;2024-01-30T11:45:07;98395.16;;;14.17;40.88
24962;BME280;12992;50.884;13.668;2024-01-30T11:47:35;98398.63;;;13.74;40.59
24962;BME280;12992;50.884;13.668;2024-01-30T11:50:01;98399.44;;;13.41;40.59
24962;BME280;12992;50.884;13.668;2024-01-30T11:52:26;98400.41;;;13.18;41.17
24962;BME280;12992;50.884;13.668;2024-01-30T11:54:53;98396.16;;;12.82;42.44
24962;BME280;12992;50.884;13.668;2024-01-30T11:57:19;98391.91;;;13.02;42.96
24962;BME280;12992;50.884;13.668;2024-01-30T11:59:44;98390.13;;;12.96;43.01
24962;BME280;12992;50.884;13.668;2024-01-30T12:02:15;98395.91;;;12.83;43.12
24962;BME280;12992;50.884;13.668;2024-01-30T12:04:40;98394.78;;;12.96;43.69
24962;BME280;12992;50.884;13.668;2024-01-30T12:07:05;98392.28;;;12.94;42.98
24962;BME280;12992;50.884;13.668;2024-01-30T12:09:31;98393.50;;;12.87;43.11
24962;BME280;12992;50.884;13.668;2024-01-30T12:11:57;98403.47;;;12.93;43.84
24962;BME280;12992;50.884;13.668;2024-01-30T12:14:22;98400.34;;;13.01;43.79
24962;BME280;12992;50.884;13.668;2024-01-30T12:16:50;98397.06;;;12.59;43.94
24962;BME280;12992;50.884;13.668;2024-01-30T12:19:25;98392.72;;;12.46;44.43
24962;BME280;12992;50.884;13.668;2024-01-30T12:21:57;98397.31;;;12.45;44.80
24962;BME280;12992;50.884;13.668;2024-01-30T12:24:27;98396.69;;;12.67;45.52
24962;BME280;12992;50.884;13.668;2024-01-30T12:26:57;98390.78;;;12.87;45.44
24962;BME280;12992;50.884;13.668;2024-01-30T12:29:22;98376.91;;;12.76;44.28
24962;BME280;12992;50.884;13.668;2024-01-30T12:31:48;98386.13;;;12.59;45.18
24962;BME280;12992;50.884;13.668;2024-01-30T12:34:14;98379.06;;;12.46;45.43
24962;BME280;12992;50.884;13.668;2024-01-30T12:36:39;98383.09;;;12.43;45.16
24962;BME280;12992;50.884;13.668;2024-01-30T12:39:05;98390.63;;;12.01;45.78
24962;BME280;12992;50.884;13.668;2024-01-30T12:41:30;98387.09;;;11.89;46.78
24962;BME280;12992;50.884;13.668;2024-01-30T12:43:57;98389.22;;;11.75;46.37
24962;BME280;12992;50.884;13.668;2024-01-30T12:46:28;98387.28;;;11.64;47.20
24962;BME280;12992;50.884;13.668;2024-01-30T12:48:53;98383.41;;;11.83;46.91
24962;BME280;12992;50.884;13.668;2024-01-30T12:51:19;98391.72;;;11.88;47.42
24962;BME280;12992;50.884;13.668;2024-01-30T12:53:44;98390.31;;;11.86;47.44